createdAt,value
2022-10-02T00:00:02.366Z,11.87
2022-10-02T00:02:36.027Z,11.98
2022-10-02T00:05:16.651Z,11.93
2022-10-02T00:07:49.225Z,11.89
2022-10-02T00:10:26.456Z,11.82
2022-10-02T00:12:58.203Z,11.74
2022-10-02T00:15:28.798Z,11.90
2022-10-02T00:18:01.657Z,11.94
2022-10-02T00:20:37.681Z,11.75
2022-10-02T00:23:19.291Z,11.74
2022-10-02T00:26:02.023Z,11.71
2022-10-02T00:28:31.293Z,11.78
2022-10-02T00:31:23.626Z,11.65
2022-10-02T00:34:00.544Z,11.81
2022-10-02T00:36:43.833Z,11.84
2022-10-02T00:39:22.421Z,11.94
2022-10-02T00:42:14.318Z,11.85
2022-10-02T00:44:59.458Z,11.89
2022-10-02T00:47:59.924Z,11.88
2022-10-02T00:50:34.289Z,11.61
2022-10-02T00:53:42.310Z,11.92
2022-10-02T00:56:08.678Z,11.47
2022-10-02T00:59:30.722Z,11.53
2022-10-02T01:02:13.923Z,11.92
2022-10-02T01:04:41.334Z,11.92
2022-10-02T01:07:11.295Z,11.85
2022-10-02T01:09:39.167Z,11.72
2022-10-02T01:12:05.642Z,11.87
2022-10-02T01:14:37.215Z,11.82
2022-10-02T01:17:07.333Z,11.79
2022-10-02T01:19:39.207Z,11.79
2022-10-02T01:22:43.881Z,11.88
2022-10-02T01:25:10.373Z,11.85
2022-10-02T01:27:39.430Z,11.94
2022-10-02T01:30:17.022Z,11.93
2022-10-02T01:32:49.344Z,11.93
2022-10-02T01:35:17.761Z,11.93
2022-10-02T01:37:44.991Z,11.72
2022-10-02T01:40:26.322Z,11.82
2022-10-02T01:42:54.123Z,11.94
2022-10-02T01:45:30.327Z,11.82
2022-10-02T01:48:09.150Z,11.83
2022-10-02T01:50:57.825Z,11.86
2022-10-02T01:53:40.928Z,11.84
2022-10-02T01:56:19.545Z,11.89
2022-10-02T01:59:05.098Z,11.95
2022-10-02T02:02:13.178Z,12.26
2022-10-02T02:04:52.696Z,11.94
2022-10-02T02:07:39.646Z,12.03
2022-10-02T02:10:27.324Z,11.92
2022-10-02T02:13:04.211Z,11.87
2022-10-02T02:15:51.016Z,11.84
2022-10-02T02:18:25.559Z,11.93
2022-10-02T02:20:56.096Z,11.90
2022-10-02T02:23:28.379Z,11.91
2022-10-02T02:26:02.513Z,12.06
2022-10-02T02:28:32.052Z,11.94
2022-10-02T02:31:01.508Z,12.01
2022-10-02T02:33:41.820Z,11.98
2022-10-02T02:36:13.539Z,12.03
2022-10-02T02:38:47.172Z,11.96
2022-10-02T02:41:18.092Z,11.95
2022-10-02T02:43:55.138Z,11.99
2022-10-02T02:47:04.309Z,12.00
2022-10-02T02:49:45.384Z,11.77
2022-10-02T02:52:17.224Z,11.81
2022-10-02T02:54:49.393Z,11.80
2022-10-02T02:57:21.136Z,11.94
2022-10-02T02:59:50.897Z,11.91
2022-10-02T03:02:17.481Z,11.79
2022-10-02T03:04:44.014Z,11.97
2022-10-02T03:07:15.927Z,11.78
2022-10-02T03:09:55.295Z,11.95
2022-10-02T03:12:44.419Z,12.00
2022-10-02T03:15:37.916Z,11.88
2022-10-02T03:18:20.206Z,11.86
2022-10-02T03:21:05.437Z,12.14
2022-10-02T03:23:34.555Z,12.05
2022-10-02T03:26:12.276Z,11.81
2022-10-02T03:28:56.045Z,11.65
2022-10-02T03:31:26.651Z,11.84
2022-10-02T03:33:54.086Z,11.63
2022-10-02T03:36:22.231Z,11.92
2022-10-02T03:39:00.669Z,11.86
2022-10-02T03:41:36.514Z,11.96
2022-10-02T03:44:02.968Z,11.92
2022-10-02T03:46:29.481Z,11.98
2022-10-02T03:48:56.567Z,11.71
2022-10-02T03:51:23.929Z,11.83
2022-10-02T03:53:50.808Z,11.89
2022-10-02T03:57:01.820Z,11.87
2022-10-02T03:59:44.618Z,11.91
2022-10-02T04:02:23.282Z,11.65
2022-10-02T04:04:56.276Z,11.62
2022-10-02T04:07:30.852Z,11.90
2022-10-02T04:10:27.759Z,11.94
2022-10-02T04:13:01.605Z,11.93
2022-10-02T04:15:36.564Z,11.89
2022-10-02T04:18:08.159Z,12.00
2022-10-02T04:20:41.778Z,12.02
2022-10-02T04:23:17.134Z,12.01
2022-10-02T04:25:49.619Z,12.02
2022-10-02T04:28:22.329Z,12.03
2022-10-02T04:30:52.400Z,11.98
2022-10-02T04:33:20.696Z,12.01
2022-10-02T04:36:24.629Z,12.07
2022-10-02T04:39:12.749Z,12.01
2022-10-02T04:42:05.136Z,12.06
2022-10-02T04:44:47.021Z,11.97
2022-10-02T04:47:19.706Z,12.05
2022-10-02T04:50:10.680Z,11.99
2022-10-02T04:53:12.003Z,12.06
2022-10-02T04:56:00.824Z,11.68
2022-10-02T04:58:36.207Z,11.54
2022-10-02T05:01:11.787Z,11.87
2022-10-02T05:04:04.072Z,11.96
2022-10-02T05:06:49.655Z,12.03
2022-10-02T05:09:31.618Z,11.97
2022-10-02T05:12:10.449Z,12.01
2022-10-02T05:14:47.348Z,11.98
2022-10-02T05:17:27.284Z,12.07
2022-10-02T05:20:21.621Z,11.80
2022-10-02T05:23:23.504Z,11.67
2022-10-02T05:26:16.469Z,11.95
2022-10-02T05:29:09.927Z,12.04
2022-10-02T05:32:05.860Z,11.63
2022-10-02T05:34:45.516Z,11.99
2022-10-02T05:37:11.843Z,11.69
2022-10-02T05:40:08.521Z,11.49
2022-10-02T05:42:43.137Z,11.83
2022-10-02T05:45:25.137Z,12.03
2022-10-02T05:47:55.532Z,11.60
2022-10-02T05:50:27.780Z,11.73
2022-10-02T05:53:00.915Z,11.98
2022-10-02T05:55:48.604Z,12.06
2022-10-02T05:58:27.460Z,12.09
2022-10-02T06:01:17.925Z,12.09
2022-10-02T06:03:50.432Z,12.06
2022-10-02T06:06:21.606Z,12.07
2022-10-02T06:08:56.394Z,12.11
2022-10-02T06:11:35.943Z,12.08
2022-10-02T06:14:20.107Z,12.11
2022-10-02T06:17:16.185Z,12.12
2022-10-02T06:19:49.104Z,12.15
2022-10-02T06:22:26.647Z,12.10
2022-10-02T06:25:11.914Z,12.08
2022-10-02T06:27:52.179Z,12.10
2022-10-02T06:30:19.731Z,12.13
2022-10-02T06:32:59.197Z,12.04
2022-10-02T06:35:52.996Z,12.14
2022-10-02T06:38:41.276Z,12.09
2022-10-02T06:41:35.583Z,12.05
2022-10-02T06:44:21.190Z,12.06
2022-10-02T06:47:14.625Z,12.12
2022-10-02T06:49:59.431Z,12.09
2022-10-02T06:52:49.676Z,12.13
2022-10-02T06:55:48.758Z,11.98
2022-10-02T06:58:25.419Z,11.95
2022-10-02T07:01:10.435Z,11.72
2022-10-02T07:03:51.609Z,11.95
2022-10-02T07:06:51.801Z,12.09
2022-10-02T07:09:30.316Z,12.07
2022-10-02T07:12:18.630Z,12.14
2022-10-02T07:15:00.424Z,12.13
2022-10-02T07:17:35.530Z,12.08
2022-10-02T07:20:16.979Z,12.11
2022-10-02T07:23:18.128Z,12.16
2022-10-02T07:26:02.748Z,11.82
2022-10-02T07:28:35.273Z,12.01
2022-10-02T07:31:21.063Z,12.06
2022-10-02T07:34:13.392Z,12.17
2022-10-02T07:36:39.883Z,11.91
2022-10-02T07:39:27.453Z,11.99
2022-10-02T07:42:38.885Z,12.12
2022-10-02T07:45:29.115Z,12.06
2022-10-02T07:48:33.109Z,12.11
2022-10-02T07:51:37.157Z,11.69
2022-10-02T07:54:29.961Z,11.80
2022-10-02T07:57:06.367Z,11.96
2022-10-02T07:59:40.470Z,11.95
2022-10-02T08:02:23.850Z,12.12
2022-10-02T08:04:57.671Z,12.13
2022-10-02T08:07:24.563Z,12.15
2022-10-02T08:09:53.309Z,12.32
2022-10-02T08:12:39.937Z,12.12
2022-10-02T08:15:07.256Z,12.12
2022-10-02T08:18:10.790Z,12.12
2022-10-02T08:20:46.633Z,12.17
2022-10-02T08:23:25.246Z,12.29
2022-10-02T08:26:05.061Z,12.03
2022-10-02T08:29:01.460Z,11.93
2022-10-02T08:31:28.078Z,11.93
2022-10-02T08:33:56.137Z,11.83
2022-10-02T08:36:51.098Z,11.92
2022-10-02T08:39:26.988Z,11.80
2022-10-02T08:42:32.716Z,11.71
2022-10-02T08:45:20.781Z,11.87
2022-10-02T08:48:08.745Z,11.91
2022-10-02T08:50:55.859Z,12.16
2022-10-02T08:53:54.343Z,12.46
2022-10-02T08:56:38.605Z,12.26
2022-10-02T08:59:23.864Z,12.39
2022-10-02T09:02:27.967Z,12.32
2022-10-02T09:05:40.612Z,12.20
2022-10-02T09:08:33.159Z,12.21
2022-10-02T09:11:36.360Z,12.25
2022-10-02T09:14:17.685Z,12.95
2022-10-02T09:17:09.208Z,12.36
2022-10-02T09:20:05.019Z,12.27
2022-10-02T09:23:08.863Z,12.63
2022-10-02T09:25:44.333Z,12.34
2022-10-02T09:28:33.671Z,12.27
2022-10-02T09:31:19.083Z,12.24
2022-10-02T09:33:57.417Z,12.28
2022-10-02T09:36:33.208Z,12.23
2022-10-02T09:39:33.712Z,12.57
2022-10-02T09:42:35.996Z,13.02
2022-10-02T09:45:21.056Z,12.48
2022-10-02T09:48:31.792Z,12.99
2022-10-02T09:51:10.271Z,12.55
2022-10-02T09:54:09.005Z,12.73
2022-10-02T09:57:15.764Z,12.37
2022-10-02T09:59:58.230Z,12.37
2022-10-02T10:02:25.869Z,12.44
2022-10-02T10:05:08.851Z,13.02
2022-10-02T10:07:53.936Z,12.50
2022-10-02T10:10:36.704Z,13.17
2022-10-02T10:13:34.305Z,13.25
2022-10-02T10:16:22.868Z,12.79
2022-10-02T10:19:23.671Z,13.20
2022-10-02T10:22:26.670Z,13.27
2022-10-02T10:25:25.495Z,12.81
2022-10-02T10:28:22.309Z,12.91
2022-10-02T10:31:05.933Z,13.05
2022-10-02T10:34:03.149Z,12.68
2022-10-02T10:37:00.627Z,12.62
2022-10-02T10:39:59.678Z,12.69
2022-10-02T10:43:06.538Z,13.79
2022-10-02T10:46:04.171Z,13.94
2022-10-02T10:48:56.203Z,13.83
2022-10-02T10:51:49.814Z,13.83
2022-10-02T10:54:44.774Z,13.83
2022-10-02T10:57:42.608Z,13.54
2022-10-02T11:00:47.649Z,13.92
2022-10-02T11:03:59.036Z,13.28
2022-10-02T11:06:34.287Z,13.02
2022-10-02T11:09:22.669Z,13.55
2022-10-02T11:12:11.734Z,14.24
2022-10-02T11:15:06.358Z,14.21
2022-10-02T11:17:57.012Z,14.18
2022-10-02T11:20:42.225Z,13.46
2022-10-02T11:23:57.720Z,13.04
2022-10-02T11:26:30.995Z,13.58
2022-10-02T11:29:00.212Z,13.58
2022-10-02T11:31:46.983Z,12.90
2022-10-02T11:34:46.629Z,12.91
2022-10-02T11:37:45.378Z,13.50
2022-10-02T11:40:45.483Z,14.10
2022-10-02T11:43:28.277Z,14.26
2022-10-02T11:46:07.507Z,15.06
2022-10-02T11:49:05.705Z,15.36
2022-10-02T11:51:47.769Z,14.79
2022-10-02T11:54:44.935Z,13.91
2022-10-02T11:57:51.331Z,14.01
2022-10-02T12:00:44.016Z,14.74
2022-10-02T12:03:36.438Z,14.89
2022-10-02T12:06:35.955Z,14.24
2022-10-02T12:09:40.343Z,14.81
2022-10-02T12:12:27.843Z,15.00
2022-10-02T12:15:23.908Z,13.61
2022-10-02T12:18:05.657Z,13.54
2022-10-02T12:20:58.988Z,14.84
2022-10-02T12:24:13.089Z,14.96
2022-10-02T12:26:58.707Z,14.06
2022-10-02T12:29:40.955Z,14.76
2022-10-02T12:32:16.504Z,14.41
2022-10-02T12:34:58.226Z,14.66
2022-10-02T12:37:51.362Z,14.61
2022-10-02T12:40:40.715Z,14.15
2022-10-02T12:43:33.335Z,14.07
2022-10-02T12:46:24.223Z,14.71
2022-10-02T12:49:35.685Z,14.18
2022-10-02T12:52:28.260Z,13.84
2022-10-02T12:55:32.452Z,14.47
2022-10-02T12:58:20.176Z,14.37
2022-10-02T13:01:11.881Z,14.32
2022-10-02T13:04:07.838Z,14.38
2022-10-02T13:06:37.251Z,14.45
2022-10-02T13:09:22.115Z,14.68
2022-10-02T13:12:17.806Z,14.43
2022-10-02T13:15:23.194Z,14.32
2022-10-02T13:18:05.471Z,14.44
2022-10-02T13:20:39.815Z,14.22
2022-10-02T13:23:15.466Z,14.00
2022-10-02T13:26:11.900Z,14.11
2022-10-02T13:29:16.395Z,14.71
2022-10-02T13:32:20.246Z,14.94
2022-10-02T13:34:50.287Z,14.81
2022-10-02T13:37:28.900Z,13.87
2022-10-02T13:40:19.775Z,13.59
2022-10-02T13:43:12.238Z,13.92
2022-10-02T13:45:51.479Z,14.45
2022-10-02T13:48:55.096Z,14.75
2022-10-02T13:51:49.209Z,14.38
2022-10-02T13:54:50.159Z,14.01
2022-10-02T13:57:46.694Z,13.50
2022-10-02T14:00:37.866Z,14.33
2022-10-02T14:03:25.652Z,14.88
2022-10-02T14:05:58.149Z,15.00
2022-10-02T14:09:11.497Z,14.91
2022-10-02T14:11:46.932Z,14.99
2022-10-02T14:14:49.609Z,15.13
2022-10-02T14:17:28.224Z,14.90
2022-10-02T14:20:15.464Z,15.11
2022-10-02T14:23:09.331Z,14.50
2022-10-02T14:26:05.504Z,13.98
2022-10-02T14:28:50.744Z,13.98
2022-10-02T14:31:26.483Z,13.98
2022-10-02T14:34:46.434Z,14.09
2022-10-02T14:37:30.968Z,14.85
2022-10-02T14:40:01.326Z,14.62
2022-10-02T14:42:56.855Z,14.37
2022-10-02T14:45:48.129Z,14.09
2022-10-02T14:48:20.911Z,14.04
2022-10-02T14:50:56.549Z,14.72
2022-10-02T14:53:55.663Z,14.74
2022-10-02T14:56:44.061Z,14.11
2022-10-02T14:59:10.464Z,14.39
2022-10-02T15:01:45.907Z,14.92
2022-10-02T15:04:30.581Z,14.48
2022-10-02T15:07:03.897Z,14.77
2022-10-02T15:09:39.157Z,14.22
2022-10-02T15:12:08.423Z,14.47
2022-10-02T15:15:05.407Z,14.19
2022-10-02T15:18:00.326Z,14.66
2022-10-02T15:21:00.524Z,14.02
2022-10-02T15:23:33.072Z,14.51
2022-10-02T15:26:14.729Z,14.64
2022-10-02T15:29:03.051Z,14.28
2022-10-02T15:31:50.972Z,14.34
2022-10-02T15:34:36.797Z,14.01
2022-10-02T15:37:18.480Z,13.79
2022-10-02T15:40:12.473Z,13.94
2022-10-02T15:42:53.208Z,13.91
2022-10-02T15:45:30.722Z,14.43
2022-10-02T15:48:15.609Z,13.93
2022-10-02T15:50:56.489Z,14.19
2022-10-02T15:53:51.423Z,14.03
2022-10-02T15:56:29.876Z,14.19
2022-10-02T15:59:21.569Z,14.34
2022-10-02T16:01:53.935Z,13.94
2022-10-02T16:04:23.348Z,14.36
2022-10-02T16:07:16.737Z,13.95
2022-10-02T16:09:49.246Z,13.87
2022-10-02T16:12:32.102Z,14.06
2022-10-02T16:15:13.084Z,13.98
2022-10-02T16:18:04.316Z,14.05
2022-10-02T16:20:43.699Z,14.32
2022-10-02T16:24:02.611Z,13.93
2022-10-02T16:26:37.306Z,13.99
2022-10-02T16:29:22.072Z,14.28
2022-10-02T16:32:07.259Z,14.26
2022-10-02T16:35:16.412Z,14.12
2022-10-02T16:37:46.517Z,14.28
2022-10-02T16:40:31.063Z,14.21
2022-10-02T16:43:19.004Z,13.73
2022-10-02T16:46:07.453Z,13.67
2022-10-02T16:48:51.868Z,13.83
2022-10-02T16:51:55.928Z,13.57
2022-10-02T16:54:34.150Z,13.51
2022-10-02T16:57:38.787Z,13.12
2022-10-02T17:00:28.333Z,13.09
2022-10-02T17:03:22.355Z,12.91
2022-10-02T17:05:53.966Z,13.09
2022-10-02T17:08:29.983Z,13.46
2022-10-02T17:11:20.537Z,13.59
2022-10-02T17:13:49.985Z,13.66
2022-10-02T17:16:23.550Z,13.76
2022-10-02T17:18:57.957Z,13.77
2022-10-02T17:21:49.996Z,13.75
2022-10-02T17:24:42.958Z,13.18
2022-10-02T17:27:14.975Z,12.48
2022-10-02T17:29:58.820Z,13.51
2022-10-02T17:32:46.857Z,13.67
2022-10-02T17:35:23.766Z,13.66
2022-10-02T17:38:10.293Z,13.15
2022-10-02T17:41:09.068Z,13.28
2022-10-02T17:44:12.847Z,13.31
2022-10-02T17:47:23.980Z,13.23
2022-10-02T17:49:58.905Z,13.61
2022-10-02T17:52:44.084Z,12.99
2022-10-02T17:55:51.177Z,13.22
2022-10-02T17:58:39.388Z,13.62
2022-10-02T18:01:22.125Z,12.94
2022-10-02T18:04:13.893Z,13.38
2022-10-02T18:06:46.983Z,13.60
2022-10-02T18:09:27.064Z,13.63
2022-10-02T18:12:26.937Z,13.67
2022-10-02T18:15:09.217Z,13.51
2022-10-02T18:17:46.968Z,12.94
2022-10-02T18:20:34.145Z,13.44
2022-10-02T18:23:21.959Z,13.62
2022-10-02T18:26:18.762Z,13.66
2022-10-02T18:29:01.028Z,13.70
2022-10-02T18:31:56.596Z,12.88
2022-10-02T18:34:57.127Z,12.33
2022-10-02T18:37:45.397Z,12.53
2022-10-02T18:40:36.968Z,13.37
2022-10-02T18:43:30.911Z,13.52
2022-10-02T18:46:09.568Z,13.57
2022-10-02T18:48:44.833Z,13.56
2022-10-02T18:51:54.687Z,13.38
2022-10-02T18:54:42.228Z,12.78
2022-10-02T18:57:08.644Z,13.44
2022-10-02T18:59:55.954Z,13.44
2022-10-02T19:02:22.429Z,13.11
2022-10-02T19:05:23.437Z,12.93
2022-10-02T19:07:56.280Z,13.44
2022-10-02T19:10:30.320Z,13.13
2022-10-02T19:13:17.530Z,13.33
2022-10-02T19:15:46.726Z,13.47
2022-10-02T19:18:22.432Z,13.52
2022-10-02T19:21:21.681Z,13.56
2022-10-02T19:23:52.580Z,13.55
2022-10-02T19:26:26.006Z,13.46
2022-10-02T19:28:57.435Z,13.57
2022-10-02T19:31:27.797Z,13.55
2022-10-02T19:34:03.056Z,13.56
2022-10-02T19:36:38.029Z,13.60
2022-10-02T19:39:13.171Z,13.59
2022-10-02T19:41:44.432Z,13.57
2022-10-02T19:44:40.292Z,13.62
2022-10-02T19:47:29.681Z,13.58
2022-10-02T19:49:58.622Z,13.38
2022-10-02T19:52:47.117Z,13.52
2022-10-02T19:55:22.149Z,13.46
2022-10-02T19:57:51.534Z,13.48
2022-10-02T20:00:19.113Z,12.49
2022-10-02T20:02:59.676Z,12.01
2022-10-02T20:05:30.821Z,12.13
2022-10-02T20:08:07.209Z,13.20
2022-10-02T20:10:40.679Z,13.33
2022-10-02T20:13:18.101Z,12.75
2022-10-02T20:16:12.794Z,12.23
2022-10-02T20:18:39.328Z,12.59
2022-10-02T20:21:12.488Z,12.11
2022-10-02T20:23:45.258Z,11.60
2022-10-02T20:26:14.781Z,11.58
2022-10-02T20:28:47.869Z,11.99
2022-10-02T20:31:19.093Z,12.79
2022-10-02T20:33:50.459Z,12.67
2022-10-02T20:36:22.059Z,11.77
2022-10-02T20:39:12.095Z,12.42
2022-10-02T20:41:52.214Z,12.81
2022-10-02T20:44:19.108Z,12.60
2022-10-02T20:47:13.583Z,12.58
2022-10-02T20:49:59.389Z,13.08
2022-10-02T20:52:46.057Z,13.09
2022-10-02T20:55:46.390Z,13.22
2022-10-02T20:58:18.893Z,13.23
2022-10-02T21:01:16.302Z,13.15
2022-10-02T21:04:06.964Z,13.09
2022-10-02T21:06:36.594Z,13.23
2022-10-02T21:09:28.032Z,13.26
2022-10-02T21:12:43.329Z,13.09
2022-10-02T21:15:09.672Z,13.24
2022-10-02T21:17:44.978Z,13.27
2022-10-02T21:20:49.573Z,13.31
2022-10-02T21:23:48.032Z,13.27
2022-10-02T21:26:47.115Z,13.18
2022-10-02T21:29:40.590Z,13.31
2022-10-02T21:32:22.675Z,12.47
2022-10-02T21:34:57.478Z,13.07
2022-10-02T21:37:53.538Z,13.20
2022-10-02T21:40:45.104Z,13.24
2022-10-02T21:43:36.040Z,13.18
2022-10-02T21:46:33.835Z,13.05
2022-10-02T21:49:34.473Z,12.42
2022-10-02T21:52:03.905Z,13.10
2022-10-02T21:54:42.590Z,13.21
2022-10-02T21:57:43.700Z,12.78
2022-10-02T22:00:22.216Z,13.17
2022-10-02T22:03:19.813Z,13.22
2022-10-02T22:06:18.619Z,13.23
2022-10-02T22:08:51.501Z,13.24
2022-10-02T22:11:43.387Z,13.14
2022-10-02T22:14:27.198Z,13.22
2022-10-02T22:17:39.823Z,13.28
2022-10-02T22:20:06.794Z,13.25
2022-10-02T22:22:59.728Z,12.58
2022-10-02T22:25:53.537Z,13.14
2022-10-02T22:28:45.387Z,13.25
2022-10-02T22:31:55.839Z,13.17
2022-10-02T22:34:43.957Z,13.24
2022-10-02T22:37:22.488Z,13.27
2022-10-02T22:40:14.199Z,13.09
2022-10-02T22:42:52.620Z,13.13
2022-10-02T22:45:30.543Z,13.25
2022-10-02T22:48:07.131Z,13.21
2022-10-02T22:50:58.062Z,13.21
2022-10-02T22:53:51.381Z,13.25
2022-10-02T22:56:37.328Z,13.20
2022-10-02T22:59:19.445Z,13.18
2022-10-02T23:01:58.556Z,13.24
2022-10-02T23:04:28.986Z,13.23
2022-10-02T23:07:07.176Z,13.24
2022-10-02T23:09:43.915Z,13.21
2022-10-02T23:12:49.527Z,13.23
2022-10-02T23:16:01.161Z,13.28
2022-10-02T23:18:36.293Z,13.12
2022-10-02T23:21:22.096Z,13.23
2022-10-02T23:24:11.441Z,13.23
2022-10-02T23:26:53.641Z,13.19
2022-10-02T23:29:52.223Z,13.22
2022-10-02T23:32:44.437Z,13.16
2022-10-02T23:35:32.367Z,13.24
2022-10-02T23:38:13.559Z,13.21
2022-10-02T23:41:36.327Z,13.25
2022-10-02T23:44:21.540Z,13.22
2022-10-02T23:46:48.410Z,13.28
2022-10-02T23:49:21.772Z,12.59
2022-10-02T23:52:16.186Z,11.38
2022-10-02T23:55:17.475Z,11.10
2022-10-02T23:58:02.414Z,11.22
